Time;durP1;ratioP1;P1;durP2;ratioP2;P2;SDS_P1;SDS_P2;PMS_P1;PMS_P2;Temp;Humidity;BMP_temperature;BMP_pressure;BME280_temperature;BME280_humidity;BME280_pressure;Samples;Min_cycle;Max_cycle;Signal;HPM_P1;HPM_P2
2021/09/18 00:00:50;;;;;;;5.13;2.33;;;23.30;54.20;;;;;;5047567;28;20046;-52
2021/09/18 00:03:15;;;;;;;3.38;2.53;;;23.30;54.20;;;;;;5031233;28;20079;-50
2021/09/18 00:05:41;;;;;;;4.18;2.63;;;23.30;54.20;;;;;;5031367;28;20047;-50
2021/09/18 00:08:07;;;;;;;4.40;2.70;;;23.30;54.20;;;;;;5033736;28;20459;-58
2021/09/18 00:10:32;;;;;;;2.83;2.22;;;23.30;54.10;;;;;;5047708;28;20033;-53
2021/09/18 00:12:58;;;;;;;3.35;1.90;;;23.30;54.20;;;;;;5050318;28;20474;-50
2021/09/18 00:15:24;;;;;;;3.33;2.47;;;23.30;54.30;;;;;;5048333;28;20082;-52
2021/09/18 00:17:49;;;;;;;3.80;2.30;;;23.30;54.30;;;;;;5049788;28;20055;-49
2021/09/18 00:20:15;;;;;;;3.13;2.08;;;23.30;54.30;;;;;;5048598;28;20084;-54
2021/09/18 00:22:41;;;;;;;2.67;2.17;;;23.30;54.20;;;;;;5049193;28;20037;-52
2021/09/18 00:25:07;;;;;;;3.75;2.40;;;23.30;54.30;;;;;;5048784;28;20516;-58
2021/09/18 00:27:33;;;;;;;1.98;1.80;;;23.30;54.20;;;;;;5048864;28;20029;-50
2021/09/18 00:29:58;;;;;;;3.25;2.30;;;23.30;54.10;;;;;;5048396;28;20084;-51
2021/09/18 00:32:24;;;;;;;2.75;1.95;;;23.30;54.20;;;;;;5047408;28;20040;-53
2021/09/18 00:34:50;;;;;;;4.95;2.13;;;23.30;54.20;;;;;;5048415;28;20025;-51
2021/09/18 00:37:15;;;;;;;2.60;2.35;;;23.30;54.20;;;;;;5048597;28;20076;-51
2021/09/18 00:39:41;;;;;;;4.20;2.15;;;23.30;54.60;;;;;;5054499;28;20029;-51
2021/09/18 00:42:07;;;;;;;3.35;2.03;;;23.30;54.10;;;;;;5051509;28;20071;-58
2021/09/18 00:44:32;;;;;;;3.25;2.35;;;23.30;54.10;;;;;;5052389;28;20021;-50
2021/09/18 00:46:58;;;;;;;3.10;2.30;;;23.30;54.10;;;;;;5050202;28;20103;-50
2021/09/18 00:49:24;;;;;;;4.47;2.45;;;23.30;54.20;;;;;;5051509;28;20658;-57
2021/09/18 00:51:50;;;;;;;3.65;2.03;;;23.30;54.20;;;;;;5051613;28;20033;-51
2021/09/18 00:54:16;;;;;;;2.72;2.00;;;23.30;54.20;;;;;;5052004;28;20040;-51
2021/09/18 00:56:42;;;;;;;3.78;2.15;;;23.30;54.20;;;;;;5052053;28;20382;-49
2021/09/18 00:59:09;;;;;;;2.45;1.88;;;23.30;54.20;;;;;;5051892;28;20031;-51
2021/09/18 01:01:35;;;;;;;3.33;1.90;;;23.40;54.30;;;;;;5052599;28;20539;-55
2021/09/18 01:04:02;;;;;;;2.90;1.80;;;23.30;54.20;;;;;;5051750;28;20033;-54
2021/09/18 01:06:28;;;;;;;2.63;2.30;;;23.30;54.20;;;;;;5052074;28;20025;-51
2021/09/18 01:08:57;;;;;;;2.22;1.70;;;23.30;54.20;;;;;;5055813;28;20454;-52
2021/09/18 01:11:23;;;;;;;3.33;2.20;;;23.30;54.20;;;;;;5051396;28;20473;-51
2021/09/18 01:13:49;;;;;;;5.43;2.70;;;23.30;54.20;;;;;;5052741;28;20040;-57
2021/09/18 01:16:15;;;;;;;2.67;2.17;;;23.30;54.20;;;;;;5050942;28;20032;-54
2021/09/18 01:18:41;;;;;;;2.75;2.00;;;23.30;54.10;;;;;;5052681;28;20057;-52
2021/09/18 01:21:10;;;;;;;5.22;1.80;;;23.30;54.10;;;;;;5051156;28;20029;-59
2021/09/18 01:23:36;;;;;;;4.43;2.05;;;23.20;54.00;;;;;;5052115;28;20485;-54
2021/09/18 01:26:02;;;;;;;3.72;2.22;;;23.20;54.10;;;;;;5051213;28;20025;-50
2021/09/18 01:28:28;;;;;;;2.70;2.30;;;23.20;54.00;;;;;;5051929;28;20039;-50
2021/09/18 01:30:54;;;;;;;2.72;1.90;;;23.20;54.00;;;;;;5044278;28;20036;-49
2021/09/18 01:33:20;;;;;;;3.20;1.90;;;23.20;54.00;;;;;;5032579;28;20033;-50
2021/09/18 01:35:46;;;;;;;2.33;1.90;;;23.20;54.00;;;;;;5034373;28;20033;-50
2021/09/18 01:38:12;;;;;;;4.57;2.42;;;23.20;54.00;;;;;;5033948;28;20030;-49
2021/09/18 01:40:42;;;;;;;3.92;2.22;;;23.10;53.90;;;;;;5073296;28;20131;-50
2021/09/18 01:43:08;;;;;;;4.50;2.00;;;23.20;54.00;;;;;;5072805;28;20033;-57
2021/09/18 01:45:34;;;;;;;2.70;1.70;;;23.20;54.00;;;;;;5044958;28;20486;-50
2021/09/18 01:48:05;;;;;;;2.92;2.25;;;23.20;53.80;;;;;;5048186;28;20029;-50
2021/09/18 01:50:40;;;;;;;3.03;2.22;;;23.20;53.80;;;;;;5052214;28;20025;-51
2021/09/18 01:53:07;;;;;;;2.80;2.30;;;23.20;53.90;;;;;;5053285;28;20433;-58
2021/09/18 01:55:34;;;;;;;2.80;2.10;;;23.20;54.00;;;;;;5057633;28;20028;-52
2021/09/18 01:58:01;;;;;;;2.80;2.17;;;23.20;53.90;;;;;;5053131;28;20424;-51
2021/09/18 02:00:27;;;;;;;2.78;2.50;;;23.30;53.90;;;;;;5050602;28;20052;-51
2021/09/18 02:02:54;;;;;;;2.38;1.70;;;23.20;53.90;;;;;;5033859;28;20152;-50
2021/09/18 02:05:24;;;;;;;3.50;2.40;;;23.30;54.00;;;;;;5051775;28;20122;-50
2021/09/18 02:07:49;;;;;;;2.67;2.00;;;23.30;54.00;;;;;;5052541;28;20025;-50
2021/09/18 02:10:19;;;;;;;2.92;2.15;;;23.30;53.90;;;;;;5064899;28;20074;-51
2021/09/18 02:12:45;;;;;;;2.80;2.22;;;23.30;53.90;;;;;;5053970;28;20091;-50
2021/09/18 02:15:13;;;;;;;2.75;2.00;;;23.30;54.00;;;;;;5046641;28;20056;-49
2021/09/18 02:17:40;;;;;;;3.10;2.28;;;23.30;53.90;;;;;;5033028;28;20120;-52
2021/09/18 02:20:08;;;;;;;3.20;2.10;;;23.30;53.90;;;;;;5032637;28;20510;-57
2021/09/18 02:22:34;;;;;;;3.08;2.08;;;23.20;53.80;;;;;;5051692;28;20098;-50
2021/09/18 02:24:59;;;;;;;2.88;1.80;;;23.30;53.90;;;;;;5052134;28;20025;-50
2021/09/18 02:27:25;;;;;;;3.65;2.15;;;23.20;53.80;;;;;;5033752;28;20069;-50
2021/09/18 02:29:51;;;;;;;3.10;1.90;;;23.20;53.80;;;;;;5032773;28;20037;-50
2021/09/18 02:32:16;;;;;;;3.30;2.13;;;23.20;53.80;;;;;;5044210;28;20477;-50
2021/09/18 02:34:42;;;;;;;2.53;2.10;;;23.20;53.80;;;;;;5041296;28;20087;-50
2021/09/18 02:37:08;;;;;;;3.97;2.10;;;23.30;53.80;;;;;;5032252;28;20104;-60
2021/09/18 02:39:33;;;;;;;2.67;1.92;;;23.20;53.90;;;;;;5054483;28;20086;-50
2021/09/18 02:41:59;;;;;;;3.10;2.35;;;23.20;53.90;;;;;;5070327;28;20040;-52
2021/09/18 02:44:24;;;;;;;2.80;1.58;;;23.30;53.90;;;;;;5067349;28;20033;-50
2021/09/18 02:46:50;;;;;;;2.47;1.92;;;23.30;53.80;;;;;;5032354;28;20030;-50
2021/09/18 02:49:16;;;;;;;2.20;2.00;;;23.20;53.80;;;;;;5031461;28;20028;-51
2021/09/18 02:51:41;;;;;;;2.97;1.90;;;23.20;53.80;;;;;;5041323;28;20094;-50
2021/09/18 02:54:07;;;;;;;4.63;2.05;;;23.20;53.80;;;;;;5031812;28;20049;-59
2021/09/18 02:56:33;;;;;;;2.00;1.63;;;23.20;53.90;;;;;;5041638;28;20489;-50
2021/09/18 02:58:58;;;;;;;2.33;1.80;;;23.20;53.80;;;;;;5052032;28;20091;-50
2021/09/18 03:01:24;;;;;;;1.90;1.80;;;23.20;53.80;;;;;;5042739;28;20128;-50
2021/09/18 03:03:50;;;;;;;3.00;1.95;;;23.20;53.80;;;;;;5045737;28;20445;-51
2021/09/18 03:06:16;;;;;;;1.83;1.70;;;23.20;53.80;;;;;;5050970;28;20033;-50
2021/09/18 03:08:41;;;;;;;4.00;2.20;;;23.20;53.80;;;;;;5055910;28;20047;-49
2021/09/18 03:11:07;;;;;;;3.08;1.67;;;23.20;53.80;;;;;;5050206;28;20025;-58
2021/09/18 03:13:35;;;;;;;2.83;2.00;;;23.20;53.80;;;;;;5035781;28;20156;-54
2021/09/18 03:16:04;;;;;;;2.47;2.13;;;23.20;53.80;;;;;;5060457;28;20064;-52
2021/09/18 03:18:30;;;;;;;2.78;1.90;;;23.20;53.90;;;;;;5042208;28;20159;-52
2021/09/18 03:20:56;;;;;;;4.25;2.30;;;23.20;53.60;;;;;;5031972;28;20105;-53
2021/09/18 03:23:21;;;;;;;2.72;1.98;;;23.10;53.60;;;;;;5030909;28;20112;-51
2021/09/18 03:25:47;;;;;;;1.92;1.80;;;23.20;53.70;;;;;;5034476;28;20046;-51
2021/09/18 03:28:12;;;;;;;2.40;2.20;;;23.20;53.70;;;;;;5050895;28;20029;-52
2021/09/18 03:30:38;;;;;;;2.28;2.08;;;23.20;53.70;;;;;;5051284;28;20040;-54
2021/09/18 03:33:04;;;;;;;2.92;1.67;;;23.20;53.70;;;;;;5051815;28;20028;-51
2021/09/18 03:35:29;;;;;;;2.40;1.77;;;23.20;53.70;;;;;;5048068;28;20619;-51
2021/09/18 03:37:55;;;;;;;2.22;1.88;;;23.20;53.60;;;;;;5040070;28;20025;-51
2021/09/18 03:40:21;;;;;;;2.78;2.10;;;23.20;53.60;;;;;;5066617;28;20563;-52
2021/09/18 03:42:47;;;;;;;6.10;2.30;;;23.20;53.60;;;;;;5057576;28;20036;-52
2021/09/18 03:45:13;;;;;;;4.40;2.08;;;23.20;53.50;;;;;;5048567;28;20028;-51
2021/09/18 03:47:39;;;;;;;4.25;2.10;;;23.20;53.40;;;;;;5047267;28;20063;-51
2021/09/18 03:50:06;;;;;;;2.97;1.95;;;23.20;53.50;;;;;;5049220;28;20112;-51
2021/09/18 03:52:32;;;;;;;2.78;1.70;;;23.20;53.50;;;;;;5050309;28;20140;-50
2021/09/18 03:54:58;;;;;;;3.92;1.98;;;23.20;53.60;;;;;;5051650;28;20115;-50
2021/09/18 03:57:24;;;;;;;3.10;1.65;;;23.20;53.60;;;;;;5048854;28;20028;-50
2021/09/18 03:59:49;;;;;;;3.42;2.10;;;23.20;53.60;;;;;;5067442;28;20454;-52
2021/09/18 04:02:15;;;;;;;2.33;2.03;;;23.20;53.60;;;;;;5031822;28;20364;-51
2021/09/18 04:04:41;;;;;;;2.30;2.10;;;23.20;53.50;;;;;;5031465;28;20030;-52
2021/09/18 04:07:06;;;;;;;3.15;2.20;;;23.20;53.40;;;;;;5031397;28;20033;-52
2021/09/18 04:09:32;;;;;;;3.13;2.25;;;23.20;53.30;;;;;;5050135;28;20052;-50
2021/09/18 04:11:57;;;;;;;3.25;2.60;;;23.20;53.20;;;;;;5034349;28;20060;-49
2021/09/18 04:14:23;;;;;;;2.85;2.45;;;23.20;53.30;;;;;;5040606;28;20036;-50
2021/09/18 04:16:49;;;;;;;6.38;2.95;;;23.20;54.00;;;;;;5053533;28;20021;-52
2021/09/18 04:19:15;;;;;;;2.47;2.00;;;23.20;53.40;;;;;;5070438;28;20044;-50
2021/09/18 04:21:40;;;;;;;3.50;2.20;;;23.20;53.40;;;;;;5051264;28;20030;-50
2021/09/18 04:24:06;;;;;;;2.50;2.30;;;23.10;53.20;;;;;;5033899;28;20033;-50
2021/09/18 04:26:33;;;;;;;3.53;2.65;;;23.20;53.20;;;;;;5035403;28;20029;-56
2021/09/18 04:28:59;;;;;;;2.47;2.15;;;23.20;53.20;;;;;;5034942;28;20429;-50
2021/09/18 04:31:25;;;;;;;3.20;2.53;;;23.20;53.20;;;;;;5049842;28;20104;-50
2021/09/18 04:33:51;;;;;;;4.07;2.33;;;23.20;53.10;;;;;;5054482;28;20116;-53
2021/09/18 04:36:17;;;;;;;4.63;2.20;;;23.20;53.10;;;;;;5053733;28;20159;-49
2021/09/18 04:38:43;;;;;;;2.33;1.95;;;23.20;53.10;;;;;;5059022;28;20436;-49
2021/09/18 04:41:09;;;;;;;2.63;2.25;;;23.20;53.20;;;;;;5062922;28;20395;-51
2021/09/18 04:43:34;;;;;;;2.67;2.30;;;23.10;53.10;;;;;;5058203;28;20041;-50
2021/09/18 04:46:00;;;;;;;2.60;1.90;;;23.20;53.20;;;;;;5050061;28;20040;-51
2021/09/18 04:48:26;;;;;;;4.70;2.30;;;23.20;53.10;;;;;;5054110;28;20036;-52
2021/09/18 04:50:52;;;;;;;2.28;2.08;;;23.20;53.10;;;;;;5052825;28;20032;-49
2021/09/18 04:53:18;;;;;;;3.78;2.58;;;23.20;53.20;;;;;;5053002;28;20054;-50
2021/09/18 04:55:44;;;;;;;2.47;2.00;;;23.10;53.00;;;;;;5047769;28;20480;-50
2021/09/18 04:58:10;;;;;;;2.50;2.00;;;23.10;53.10;;;;;;5073876;28;20450;-50
2021/09/18 05:00:36;;;;;;;2.50;2.20;;;23.10;53.00;;;;;;5063164;28;20063;-50
2021/09/18 05:03:02;;;;;;;2.40;2.15;;;23.10;53.10;;;;;;5053881;28;20033;-50
2021/09/18 05:05:27;;;;;;;2.35;2.00;;;23.10;53.10;;;;;;5051711;28;20060;-49
2021/09/18 05:07:53;;;;;;;2.90;2.22;;;23.10;53.00;;;;;;5055386;28;20040;-50
2021/09/18 05:10:20;;;;;;;3.33;2.38;;;23.10;52.90;;;;;;5064232;28;20036;-50
2021/09/18 05:12:45;;;;;;;2.60;2.38;;;23.10;52.10;;;;;;5053621;28;20029;-50
2021/09/18 05:15:11;;;;;;;5.57;3.15;;;23.10;52.50;;;;;;5048851;28;20017;-55
2021/09/18 05:17:37;;;;;;;3.03;2.05;;;23.10;52.60;;;;;;5073276;28;20029;-48
2021/09/18 05:20:05;;;;;;;4.90;2.30;;;23.10;52.80;;;;;;5073854;28;20024;-51
2021/09/18 05:22:31;;;;;;;3.42;2.15;;;23.20;52.50;;;;;;5035875;28;20183;-52
2021/09/18 05:24:56;;;;;;;3.80;2.17;;;23.20;52.50;;;;;;5032799;28;20510;-53
2021/09/18 05:27:22;;;;;;;4.68;2.25;;;23.20;52.60;;;;;;5048063;28;20363;-54
2021/09/18 05:29:48;;;;;;;7.88;2.63;;;23.20;53.10;;;;;;5052465;28;20029;-53
2021/09/18 05:32:14;;;;;;;5.13;2.22;;;23.30;52.90;;;;;;5051449;28;20025;-59
2021/09/18 05:34:40;;;;;;;3.67;2.30;;;23.30;53.10;;;;;;5052856;28;20114;-52
2021/09/18 05:37:06;;;;;;;5.30;2.75;;;23.30;53.00;;;;;;5053057;28;20029;-54
2021/09/18 05:39:32;;;;;;;5.07;2.80;;;23.30;52.90;;;;;;5051535;28;20876;-55
2021/09/18 05:41:59;;;;;;;6.25;3.42;;;23.30;52.50;;;;;;5049511;28;20029;-49
2021/09/18 05:44:24;;;;;;;4.70;3.28;;;23.30;50.50;;;;;;5047140;28;20036;-56
2021/09/18 05:46:50;;;;;;;7.00;3.40;;;23.10;49.80;;;;;;5053105;28;20025;-54
2021/09/18 05:49:16;;;;;;;6.88;2.60;;;23.20;50.60;;;;;;5051396;28;20020;-60
2021/09/18 05:51:42;;;;;;;5.35;2.50;;;23.20;51.20;;;;;;5053349;28;20074;-53
2021/09/18 05:54:08;;;;;;;5.93;2.20;;;23.20;51.70;;;;;;5053029;28;20437;-53
2021/09/18 05:56:34;;;;;;;5.78;2.70;;;23.30;51.90;;;;;;5049556;28;20029;-55
2021/09/18 05:59:01;;;;;;;6.78;2.50;;;23.30;51.80;;;;;;5052815;28;20029;-55
2021/09/18 06:01:27;;;;;;;5.03;2.58;;;23.40;51.90;;;;;;5050436;28;20072;-50
2021/09/18 06:03:53;;;;;;;3.53;2.47;;;23.40;52.00;;;;;;5052685;28;20385;-52
2021/09/18 06:06:19;;;;;;;3.05;2.47;;;23.40;51.90;;;;;;5049625;28;20104;-57
2021/09/18 06:08:45;;;;;;;2.38;2.17;;;23.50;52.00;;;;;;5052400;28;20096;-58
2021/09/18 06:11:11;;;;;;;3.40;2.13;;;23.50;51.90;;;;;;5050350;28;20053;-54
2021/09/18 06:13:37;;;;;;;4.13;2.33;;;23.50;52.00;;;;;;5051538;28;20025;-56
2021/09/18 06:16:02;;;;;;;6.57;2.30;;;23.50;52.10;;;;;;5049921;28;20686;-51
2021/09/18 06:18:28;;;;;;;3.35;2.50;;;23.50;52.40;;;;;;5050730;28;20124;-47
2021/09/18 06:20:54;;;;;;;4.32;2.45;;;23.50;52.50;;;;;;5052128;28;20040;-49
2021/09/18 06:23:20;;;;;;;10.23;2.95;;;23.50;52.60;;;;;;5050290;28;20482;-49
2021/09/18 06:25:45;;;;;;;3.80;2.38;;;23.50;52.50;;;;;;5054174;28;20051;-48
2021/09/18 06:28:11;;;;;;;7.30;2.63;;;23.60;52.50;;;;;;5051862;28;20360;-48
2021/09/18 06:30:37;;;;;;;2.33;2.13;;;23.60;52.50;;;;;;5050662;28;20040;-47
2021/09/18 06:33:05;;;;;;;2.90;2.22;;;23.60;52.60;;;;;;5051625;28;20385;-47
2021/09/18 06:35:30;;;;;;;5.55;2.60;;;23.50;52.80;;;;;;5052512;28;20025;-48
2021/09/18 06:37:56;;;;;;;5.30;2.40;;;23.50;52.90;;;;;;5052155;28;20389;-48
2021/09/18 06:40:22;;;;;;;3.97;3.17;;;23.50;52.70;;;;;;5046698;28;20455;-47
2021/09/18 06:42:48;;;;;;;4.78;2.63;;;23.40;52.90;;;;;;5038012;28;20064;-47
2021/09/18 06:45:14;;;;;;;8.13;2.90;;;23.50;53.00;;;;;;5051269;28;20039;-50
2021/09/18 06:47:40;;;;;;;7.90;2.60;;;23.50;53.20;;;;;;5061820;28;20078;-48
2021/09/18 06:50:06;;;;;;;4.82;2.30;;;23.40;53.00;;;;;;5072023;28;20033;-47
2021/09/18 06:52:32;;;;;;;9.20;2.35;;;23.40;53.30;;;;;;5047412;28;20055;-48
2021/09/18 06:54:58;;;;;;;6.97;2.90;;;23.40;53.30;;;;;;5038811;28;20051;-47
2021/09/18 06:57:24;;;;;;;6.95;2.78;;;23.50;52.70;;;;;;5031399;28;20039;-48
2021/09/18 06:59:50;;;;;;;10.25;3.05;;;23.50;53.20;;;;;;5032517;28;20045;-49
2021/09/18 07:02:15;;;;;;;10.63;3.20;;;23.40;52.60;;;;;;5050465;28;20402;-56
2021/09/18 07:04:41;;;;;;;5.63;3.10;;;23.40;53.10;;;;;;5053698;28;20020;-44
2021/09/18 07:07:07;;;;;;;8.45;3.00;;;23.30;52.70;;;;;;5040338;28;20104;-48
2021/09/18 07:09:32;;;;;;;5.38;2.92;;;23.40;53.30;;;;;;5042559;28;20462;-53
2021/09/18 07:11:58;;;;;;;8.75;2.88;;;23.50;53.30;;;;;;5052002;28;20429;-50
2021/09/18 07:14:24;;;;;;;8.13;2.80;;;23.50;52.80;;;;;;5050176;28;20032;-49
2021/09/18 07:16:50;;;;;;;5.43;3.65;;;23.60;51.80;;;;;;5051756;28;20502;-48
2021/09/18 07:19:16;;;;;;;6.95;3.05;;;23.70;51.50;;;;;;5051676;28;20170;-49
2021/09/18 07:21:42;;;;;;;7.13;2.83;;;23.70;51.30;;;;;;5051074;28;20029;-47
2021/09/18 07:24:08;;;;;;;7.72;2.70;;;23.70;51.40;;;;;;5051635;28;20547;-47
2021/09/18 07:26:35;;;;;;;7.47;2.90;;;23.70;52.30;;;;;;5038834;28;20466;-47
2021/09/18 07:29:00;;;;;;;5.90;3.00;;;23.70;51.60;;;;;;5032380;28;20053;-46
2021/09/18 07:31:26;;;;;;;6.80;2.80;;;23.70;52.80;;;;;;5031078;28;20037;-46
2021/09/18 07:33:52;;;;;;;7.72;2.65;;;23.70;52.70;;;;;;5031148;28;20032;-48
2021/09/18 07:36:18;;;;;;;8.77;2.80;;;23.70;53.50;;;;;;5046677;28;20033;-54
2021/09/18 07:38:44;;;;;;;6.07;2.63;;;23.60;52.90;;;;;;5066774;28;20388;-46
2021/09/18 07:41:09;;;;;;;10.82;3.10;;;23.60;53.70;;;;;;5062686;28;20095;-46
2021/09/18 07:43:35;;;;;;;8.45;2.80;;;23.60;53.70;;;;;;5050574;28;20037;-48
2021/09/18 07:46:02;;;;;;;4.70;3.05;;;23.60;51.90;;;;;;5050711;28;20346;-46
2021/09/18 07:48:30;;;;;;;6.28;3.03;;;23.50;51.30;;;;;;5052973;28;20367;-46
2021/09/18 07:50:59;;;;;;;7.40;3.55;;;23.50;51.00;;;;;;5055156;28;20033;-46
2021/09/18 07:53:25;;;;;;;5.13;2.80;;;23.40;51.00;;;;;;5052276;28;20029;-46
2021/09/18 07:55:51;;;;;;;5.03;2.83;;;23.40;51.20;;;;;;5039117;28;20022;-47
2021/09/18 07:58:17;;;;;;;4.50;2.90;;;23.30;51.20;;;;;;5050269;28;20381;-46
2021/09/18 08:00:46;;;;;;;6.43;2.78;;;23.30;51.20;;;;;;5054276;28;20053;-46
2021/09/18 08:03:16;;;;;;;5.25;3.25;;;23.30;51.20;;;;;;5055085;28;20044;-47
2021/09/18 08:05:42;;;;;;;5.88;2.42;;;23.30;51.20;;;;;;5054182;28;20036;-47
2021/09/18 08:08:07;;;;;;;7.70;3.15;;;23.30;51.20;;;;;;5063455;28;20025;-46
2021/09/18 08:10:34;;;;;;;6.07;3.10;;;23.30;51.20;;;;;;5039888;28;20021;-46
2021/09/18 08:13:00;;;;;;;5.35;2.30;;;23.30;51.20;;;;;;5055372;28;20037;-46
2021/09/18 08:15:26;;;;;;;3.88;2.55;;;23.20;51.20;;;;;;5052733;28;20382;-46
2021/09/18 08:17:52;;;;;;;5.70;2.97;;;23.30;51.20;;;;;;5035057;28;20029;-47
2021/09/18 08:20:18;;;;;;;4.95;2.58;;;23.20;51.20;;;;;;5035583;28;20429;-46
2021/09/18 08:22:45;;;;;;;3.65;2.40;;;23.20;51.20;;;;;;5047357;28;20060;-46
2021/09/18 08:25:11;;;;;;;5.70;2.60;;;23.20;51.20;;;;;;5042821;28;20152;-46
2021/09/18 08:27:37;;;;;;;5.55;2.78;;;23.20;51.20;;;;;;5054257;28;20029;-46
2021/09/18 08:30:07;;;;;;;3.90;2.47;;;23.20;51.90;;;;;;5055028;28;20025;-48
2021/09/18 08:32:33;;;;;;;3.45;2.50;;;23.20;51.30;;;;;;5053802;28;20033;-46
2021/09/18 08:34:59;;;;;;;4.60;2.90;;;23.20;51.30;;;;;;5054945;28;20473;-46
2021/09/18 08:37:24;;;;;;;3.70;2.70;;;23.20;51.40;;;;;;5060494;28;20028;-46
2021/09/18 08:39:50;;;;;;;2.50;2.30;;;23.20;51.50;;;;;;5048175;28;20038;-46
2021/09/18 08:42:16;;;;;;;4.60;2.22;;;23.20;51.50;;;;;;5039220;28;20045;-46
2021/09/18 08:44:42;;;;;;;4.82;3.05;;;23.20;51.60;;;;;;5049302;28;20021;-47
2021/09/18 08:47:10;;;;;;;3.60;3.22;;;23.20;51.50;;;;;;5034656;28;20108;-53
2021/09/18 08:49:36;;;;;;;5.55;2.60;;;23.20;51.60;;;;;;5035472;28;20497;-46
2021/09/18 08:52:03;;;;;;;5.95;2.65;;;23.20;51.60;;;;;;5054245;28;20025;-47
2021/09/18 08:54:29;;;;;;;3.95;2.80;;;23.20;51.70;;;;;;5052226;28;20112;-46
2021/09/18 08:56:54;;;;;;;10.18;3.33;;;23.20;51.70;;;;;;5039577;28;20120;-46
2021/09/18 08:59:20;;;;;;;4.32;2.60;;;23.20;51.80;;;;;;5049920;28;20398;-54
2021/09/18 09:02:10;;;;;;;3.20;2.50;;;23.20;51.80;;;;;;5042800;28;20053;-46
2021/09/18 09:04:36;;;;;;;3.05;2.28;;;23.20;52.00;;;;;;5033528;28;20045;-46
2021/09/18 09:07:02;;;;;;;3.42;2.50;;;23.20;52.00;;;;;;5042194;28;20035;-46
2021/09/18 09:09:55;;;;;;;5.95;3.08;;;23.20;52.00;;;;;;5038296;28;20026;-48
2021/09/18 09:12:36;;;;;;;4.50;2.47;;;23.20;52.00;;;;;;5035084;28;20044;-54
2021/09/18 09:15:08;;;;;;;4.40;2.30;;;23.20;52.50;;;;;;5054337;28;20028;-50
2021/09/18 09:17:38;;;;;;;4.30;2.47;;;23.20;52.40;;;;;;5053186;28;20179;-46
2021/09/18 09:20:04;;;;;;;2.72;2.28;;;23.30;52.40;;;;;;5053814;28;20025;-45
2021/09/18 09:23:02;;;;;;;6.07;2.55;;;23.30;52.40;;;;;;5051821;28;20120;-47
2021/09/18 09:25:36;;;;;;;4.80;2.30;;;23.20;52.60;;;;;;5045837;28;20123;-45
2021/09/18 09:28:21;;;;;;;4.55;2.47;;;23.20;52.70;;;;;;5033841;28;20030;-46
2021/09/18 09:30:48;;;;;;;4.63;2.83;;;23.20;52.90;;;;;;5033437;28;20034;-47
2021/09/18 09:33:13;;;;;;;4.20;2.22;;;23.20;52.80;;;;;;5038185;28;20087;-47
2021/09/18 09:35:41;;;;;;;8.02;2.60;;;23.20;53.10;;;;;;5051654;28;20767;-53
2021/09/18 09:38:08;;;;;;;10.25;2.97;;;23.20;53.20;;;;;;5046092;28;20044;-46
2021/09/18 09:40:45;;;;;;;4.57;3.03;;;23.20;53.50;;;;;;5053818;28;20183;-45
2021/09/18 09:43:13;;;;;;;4.70;3.33;;;23.20;53.80;;;;;;5044436;28;20128;-45
2021/09/18 09:45:39;;;;;;;6.32;3.15;;;23.20;53.30;;;;;;5034924;28;20060;-45
2021/09/18 09:48:15;;;;;;;3.42;2.65;;;23.10;52.90;;;;;;5052429;28;20409;-45
2021/09/18 09:50:44;;;;;;;4.20;2.88;;;22.90;53.00;;;;;;5051684;28;20089;-46
2021/09/18 09:53:27;;;;;;;3.67;2.35;;;22.90;52.20;;;;;;5052970;28;20121;-45
2021/09/18 09:55:54;;;;;;;4.28;2.35;;;22.90;52.20;;;;;;5046989;28;20375;-45
2021/09/18 09:58:19;;;;;;;3.85;2.40;;;22.80;51.10;;;;;;5033318;28;20032;-48
2021/09/18 10:00:51;;;;;;;4.22;2.88;;;22.50;51.60;;;;;;5036210;28;20041;-53
2021/09/18 10:03:25;;;;;;;3.13;1.63;;;22.50;51.10;;;;;;5047824;28;20069;-53
2021/09/18 10:05:54;;;;;;;5.00;1.60;;;22.50;49.70;;;;;;5043821;28;20056;-50
2021/09/18 10:08:24;;;;;;;3.40;1.52;;;22.60;49.00;;;;;;5051074;28;20036;-49
2021/09/18 10:10:51;;;;;;;4.95;1.30;;;22.60;48.50;;;;;;5045034;28;20562;-50
2021/09/18 10:13:22;;;;;;;2.03;1.40;;;22.50;47.70;;;;;;5032887;28;20471;-48
2021/09/18 10:15:50;;;;;;;2.87;1.13;;;22.60;47.70;;;;;;5033760;28;20117;-49
2021/09/18 10:18:16;;;;;;;1.40;1.00;;;22.70;46.60;;;;;;5052856;28;20354;-49
2021/09/18 10:23:19;;;;;;;1.48;1.08;;;22.50;46.30;;;;;;5050835;28;20047;-57
2021/09/18 10:25:50;;;;;;;1.73;1.27;;;22.60;46.70;;;;;;5051391;28;20028;-52
2021/09/18 10:28:26;;;;;;;2.90;1.45;;;22.50;46.80;;;;;;5052578;28;20041;-54
2021/09/18 10:31:13;;;;;;;3.53;1.65;;;22.40;47.80;;;;;;5044649;28;20566;-48
2021/09/18 10:33:45;;;;;;;5.28;1.85;;;22.40;48.60;;;;;;5031396;28;20029;-55
2021/09/18 10:36:15;;;;;;;4.45;1.80;;;22.30;49.00;;;;;;5036677;28;20032;-56
2021/09/18 10:38:51;;;;;;;4.75;2.03;;;22.30;48.90;;;;;;5051996;28;20040;-53
2021/09/18 10:41:24;;;;;;;2.45;1.70;;;22.30;49.50;;;;;;5051955;28;20462;-55
2021/09/18 10:43:55;;;;;;;3.03;2.10;;;22.40;49.50;;;;;;5032361;28;20034;-51
2021/09/18 10:46:43;;;;;;;4.25;2.10;;;22.40;49.00;;;;;;5050008;28;20029;-51
2021/09/18 10:49:33;;;;;;;2.40;2.20;;;22.30;49.40;;;;;;5046280;28;20037;-50
2021/09/18 10:52:20;;;;;;;3.30;2.30;;;22.30;50.30;;;;;;5032118;28;20033;-52
2021/09/18 10:57:56;;;;;;;2.50;1.85;;;22.30;50.60;;;;;;5049550;28;20037;-56
2021/09/18 11:00:25;;;;;;;3.15;2.13;;;22.30;50.40;;;;;;5051809;28;20512;-50
2021/09/18 11:02:57;;;;;;;5.43;2.55;;;22.40;50.50;;;;;;5051682;28;20037;-55
2021/09/18 11:05:22;;;;;;;5.65;1.75;;;22.40;50.30;;;;;;5050586;28;20020;-52
2021/09/18 11:07:52;;;;;;;2.35;1.45;;;22.70;53.40;;;;;;5038519;28;20086;-51
2021/09/18 11:10:21;;;;;;;2.65;2.42;;;23.20;52.80;;;;;;5050061;28;20021;-52
2021/09/18 11:13:08;;;;;;;2.67;2.25;;;23.30;50.20;;;;;;5031014;28;20190;-47
2021/09/18 11:15:39;;;;;;;6.60;2.65;;;23.10;48.80;;;;;;5044800;28;20108;-46
2021/09/18 11:18:41;;;;;;;6.38;2.20;;;22.90;49.20;;;;;;5030908;28;20039;-50
2021/09/18 11:21:11;;;;;;;5.05;2.00;;;22.70;50.00;;;;;;5028886;28;20437;-57
2021/09/18 11:23:39;;;;;;;3.50;1.83;;;22.90;50.00;;;;;;5030888;28;20095;-57
2021/09/18 11:26:39;;;;;;;3.42;1.73;;;22.90;49.90;;;;;;5032664;28;20032;-57
2021/09/18 11:29:12;;;;;;;4.75;1.88;;;23.00;50.30;;;;;;5031638;28;20056;-57
2021/09/18 11:31:58;;;;;;;3.03;1.67;;;23.00;50.90;;;;;;5029847;28;20116;-56
2021/09/18 11:34:26;;;;;;;4.22;2.90;;;22.90;51.00;;;;;;5032586;28;20431;-57
2021/09/18 11:36:54;;;;;;;4.15;1.88;;;22.90;51.10;;;;;;5031534;28;20352;-57
2021/09/18 11:39:56;;;;;;;4.47;2.38;;;23.00;51.00;;;;;;5045849;28;20526;-56
2021/09/18 11:42:33;;;;;;;2.55;1.63;;;23.00;50.90;;;;;;5012272;28;20030;-57
2021/09/18 11:45:12;;;;;;;3.00;1.70;;;23.00;50.50;;;;;;5045188;28;20124;-56
2021/09/18 11:47:44;;;;;;;2.20;1.60;;;23.00;49.90;;;;;;5050789;28;20056;-57
2021/09/18 11:50:42;;;;;;;2.65;1.60;;;23.00;49.90;;;;;;5051849;28;20021;-56
2021/09/18 11:53:10;;;;;;;1.65;1.40;;;23.00;49.80;;;;;;5049975;28;20037;-57
2021/09/18 11:55:41;;;;;;;2.40;1.83;;;23.10;49.70;;;;;;5047885;28;20456;-57
2021/09/18 11:58:11;;;;;;;2.67;1.90;;;23.10;49.50;;;;;;5031558;28;20044;-56
2021/09/18 12:00:42;;;;;;;2.72;1.58;;;23.10;49.30;;;;;;5030539;28;20442;-56
2021/09/18 12:03:08;;;;;;;4.43;1.67;;;23.10;49.20;;;;;;5031759;28;20033;-57
2021/09/18 12:05:34;;;;;;;2.63;1.90;;;23.10;49.00;;;;;;5031009;28;20133;-57
2021/09/18 12:07:59;;;;;;;3.65;1.73;;;23.10;48.80;;;;;;5051083;28;20036;-57
2021/09/18 12:10:25;;;;;;;2.63;1.83;;;23.10;48.80;;;;;;5047893;28;20076;-56
2021/09/18 12:13:00;;;;;;;2.30;1.50;;;23.10;48.70;;;;;;5048295;28;20075;-55
2021/09/18 12:15:32;;;;;;;3.75;1.95;;;23.10;48.90;;;;;;5050186;28;20025;-56
2021/09/18 12:17:57;;;;;;;2.78;1.40;;;23.10;48.80;;;;;;5031902;28;20031;-56
2021/09/18 12:20:23;;;;;;;2.15;1.58;;;23.10;49.10;;;;;;5031181;28;20036;-57
2021/09/18 12:22:49;;;;;;;2.15;1.70;;;23.10;49.30;;;;;;5030581;28;20025;-56
2021/09/18 12:25:15;;;;;;;2.00;1.67;;;23.10;49.40;;;;;;5032066;28;20534;-57
2021/09/18 12:27:41;;;;;;;2.30;1.30;;;23.10;49.50;;;;;;5040142;28;20032;-57
2021/09/18 12:30:10;;;;;;;2.33;1.65;;;23.10;49.50;;;;;;5030997;28;20113;-57
2021/09/18 12:32:36;;;;;;;1.90;1.70;;;23.20;49.50;;;;;;5031083;28;20095;-56
2021/09/18 12:35:08;;;;;;;1.98;1.70;;;23.20;49.60;;;;;;5046947;28;20033;-57
2021/09/18 12:37:38;;;;;;;2.88;2.20;;;23.20;49.50;;;;;;5053686;28;20386;-57
2021/09/18 12:40:16;;;;;;;1.88;1.60;;;23.20;49.40;;;;;;5054804;28;20025;-56
2021/09/18 12:42:42;;;;;;;2.10;1.80;;;23.20;49.40;;;;;;5040632;28;20509;-57
2021/09/18 12:45:27;;;;;;;1.75;1.48;;;23.20;49.40;;;;;;5044553;28;20021;-55
2021/09/18 12:48:18;;;;;;;2.40;1.80;;;23.20;49.60;;;;;;5034430;28;20041;-56
2021/09/18 12:50:58;;;;;;;2.95;1.75;;;23.20;49.80;;;;;;5033939;28;20040;-57
2021/09/18 12:53:31;;;;;;;2.50;2.03;;;23.20;49.80;;;;;;5034683;28;20040;-56
2021/09/18 12:56:16;;;;;;;1.98;1.65;;;23.20;49.80;;;;;;5034949;28;20443;-56